Airport ID:O02
Update Time (UTC):27/09/2021 15:27
Wind Speed (Knots):1
Wind Direction (Magnetic):310
Temperature (°C):10
Dew Point (°C):-11
Humidity (%):23
Altimeter (inHg):30.13
Density Altitude (Feet):
Visibility:10+
Clouds (Hundreds of feet):***
Present Weather:
METAR:METAR O02 271525Z AUTO 00000KT 10SM 10/M11 A3012 RMK A01

The data displayed is for advisory purposes only and is not to be used for flight planning or operations.